Time;durP1;ratioP1;P1;durP2;ratioP2;P2;SDS_P1;SDS_P2;PMS_P1;PMS_P2;Temp;Humidity;BMP_temperature;BMP_pressure;BME280_temperature;BME280_humidity;BME280_pressure;Samples;Min_cycle;Max_cycle;Signal;HPM_P1;HPM_P2
2021/07/28 00:00:07;;;;;;;11.55;8.20;;;;;;;16.93;100.00;100075.59;5055585;28;20497;-85
2021/07/28 00:02:32;;;;;;;11.48;7.97;;;;;;;16.91;100.00;100065.22;5055672;28;20025;-85
2021/07/28 00:04:58;;;;;;;9.82;7.75;;;;;;;16.87;100.00;100055.84;5055919;28;20021;-85
2021/07/28 00:07:23;;;;;;;10.13;7.80;;;;;;;16.88;100.00;100051.44;5038018;28;20025;-85
2021/07/28 00:09:48;;;;;;;10.93;7.60;;;;;;;16.91;100.00;100054.75;5037527;28;20029;-85
2021/07/28 00:12:14;;;;;;;10.43;6.68;;;;;;;16.89;100.00;100051.34;5055847;28;20524;-84
2021/07/28 00:14:39;;;;;;;10.13;6.43;;;;;;;16.85;100.00;100054.22;5055365;28;20035;-85
2021/07/28 00:17:07;;;;;;;9.07;5.95;;;;;;;16.88;100.00;100054.06;5037355;28;20021;-85
2021/07/28 00:19:47;;;;;;;9.10;6.40;;;;;;;16.87;100.00;100050.59;5037682;28;20032;-85
2021/07/28 00:24:56;;;;;;;8.93;6.05;;;;;;;16.82;100.00;100051.75;5055952;28;20083;-85
2021/07/28 00:27:21;;;;;;;8.40;5.82;;;;;;;16.84;100.00;100048.16;5037349;28;20068;-85
2021/07/28 00:29:46;;;;;;;9.48;6.22;;;;;;;16.85;100.00;100049.00;5037233;28;20094;-85
2021/07/28 00:32:12;;;;;;;10.20;5.47;;;;;;;16.84;100.00;100047.28;5037412;28;20067;-85
2021/07/28 00:34:37;;;;;;;10.85;5.47;;;;;;;16.87;100.00;100044.50;5038004;28;20031;-85
2021/07/28 00:37:02;;;;;;;11.75;6.22;;;;;;;16.89;100.00;100043.50;5037251;28;20112;-85
2021/07/28 00:39:28;;;;;;;8.43;5.20;;;;;;;16.85;100.00;100036.72;5055276;28;20108;-85
2021/07/28 00:41:53;;;;;;;7.85;5.57;;;;;;;16.88;100.00;100041.81;5037136;28;20021;-85
2021/07/28 00:44:18;;;;;;;8.75;5.80;;;;;;;16.83;100.00;100035.94;5037017;28;20035;-85
2021/07/28 00:46:43;;;;;;;9.00;5.45;;;;;;;16.82;100.00;100026.41;5037003;28;20039;-84
2021/07/28 00:49:09;;;;;;;10.73;5.70;;;;;;;16.87;100.00;100026.16;5036901;28;20452;-85
2021/07/28 00:51:34;;;;;;;8.48;4.95;;;;;;;16.83;100.00;100029.88;5054825;28;20020;-85
2021/07/28 00:54:00;;;;;;;8.40;5.47;;;;;;;16.85;100.00;100033.28;5054771;28;20052;-85
2021/07/28 00:56:26;;;;;;;10.52;5.50;;;;;;;16.85;100.00;100033.28;5036924;28;20016;-85
2021/07/28 00:58:53;;;;;;;7.85;5.45;;;;;;;16.79;100.00;100030.03;5054834;28;20461;-85
2021/07/28 01:01:19;;;;;;;7.85;4.95;;;;;;;16.83;100.00;100027.25;5036753;28;20036;-85
2021/07/28 01:03:44;;;;;;;9.13;5.30;;;;;;;16.74;100.00;100018.91;5054673;28;20469;-85
2021/07/28 01:06:10;;;;;;;10.25;5.45;;;;;;;16.69;100.00;100018.31;5036593;28;20075;-85
2021/07/28 01:08:35;;;;;;;8.68;5.50;;;;;;;16.66;100.00;100008.00;5036677;28;20025;-85
2021/07/28 01:11:03;;;;;;;7.93;5.45;;;;;;;16.58;100.00;100018.88;5054714;28;20423;-85
2021/07/28 01:13:31;;;;;;;10.90;5.82;;;;;;;16.56;100.00;100023.34;5054593;28;20105;-85
2021/07/28 01:16:06;;;;;;;9.43;5.85;;;;;;;16.50;100.00;100013.19;5036761;28;20040;-85
2021/07/28 01:18:33;;;;;;;8.82;5.63;;;;;;;16.52;100.00;100010.50;5036234;28;20021;-84
2021/07/28 01:20:58;;;;;;;9.60;5.80;;;;;;;16.46;100.00;100011.66;5036299;28;20044;-84
2021/07/28 01:23:25;;;;;;;8.60;5.78;;;;;;;16.43;100.00;100010.97;5036402;28;20025;-84
2021/07/28 01:25:52;;;;;;;9.68;6.30;;;;;;;16.41;100.00;100007.56;5036340;28;20111;-84
2021/07/28 01:28:19;;;;;;;9.15;5.85;;;;;;;16.49;100.00;100008.88;5036004;28;20031;-84
2021/07/28 01:30:46;;;;;;;8.73;5.65;;;;;;;16.51;100.00;100006.19;5036549;28;20108;-84
2021/07/28 01:33:11;;;;;;;9.13;6.13;;;;;;;16.44;100.00;100008.28;5036643;28;20025;-85
2021/07/28 01:35:38;;;;;;;8.13;5.70;;;;;;;16.48;100.00;100004.56;5053943;28;20036;-85
2021/07/28 01:38:05;;;;;;;12.65;6.75;;;;;;;16.56;100.00;100004.16;5053930;28;20055;-85
2021/07/28 01:40:35;;;;;;;9.65;6.18;;;;;;;16.51;100.00;99993.09;5053776;28;20021;-85
2021/07/28 01:43:11;;;;;;;11.80;6.45;;;;;;;16.55;100.00;100002.47;5036601;28;20028;-84
2021/07/28 01:45:36;;;;;;;9.55;6.47;;;;;;;16.53;100.00;99997.34;5035976;28;20032;-84
2021/07/28 01:48:01;;;;;;;10.80;6.65;;;;;;;16.53;100.00;99999.94;5035889;28;20025;-84
2021/07/28 01:50:26;;;;;;;9.88;5.88;;;;;;;16.51;100.00;99998.34;5035897;28;20511;-84
2021/07/28 01:52:52;;;;;;;10.48;6.85;;;;;;;16.47;100.00;99992.41;5035791;28;20481;-84
2021/07/28 01:55:17;;;;;;;8.75;6.63;;;;;;;16.51;100.00;99999.19;5053632;28;20112;-84
2021/07/28 01:57:42;;;;;;;11.27;6.85;;;;;;;16.54;100.00;99998.19;5035817;28;20029;-84
2021/07/28 02:00:08;;;;;;;9.05;6.20;;;;;;;16.52;100.00;99986.94;5053532;28;20111;-85
2021/07/28 02:02:34;;;;;;;11.13;6.50;;;;;;;16.51;100.00;99993.94;5035704;28;20036;-85
2021/07/28 02:05:02;;;;;;;8.60;5.50;;;;;;;16.54;100.00;99990.31;5053558;28;20075;-85
2021/07/28 02:07:27;;;;;;;8.98;6.07;;;;;;;16.54;100.00;99982.47;5035644;28;20033;-85
2021/07/28 02:09:52;;;;;;;8.40;6.00;;;;;;;16.49;100.00;99987.09;5053319;28;20048;-85
2021/07/28 02:12:18;;;;;;;9.30;6.00;;;;;;;16.49;100.00;99985.31;5035414;28;20023;-85
2021/07/28 02:14:43;;;;;;;8.68;5.95;;;;;;;16.48;100.00;99985.41;5035494;28;20056;-84
2021/07/28 02:17:08;;;;;;;8.75;5.93;;;;;;;16.42;100.00;99983.94;5035607;28;20035;-85
2021/07/28 02:19:33;;;;;;;9.05;6.03;;;;;;;16.41;100.00;99984.00;5053070;28;20037;-85
2021/07/28 02:21:59;;;;;;;8.57;5.75;;;;;;;16.43;100.00;99979.56;5053126;28;20378;-85
2021/07/28 02:24:24;;;;;;;10.02;6.55;;;;;;;16.42;100.00;99977.88;5053175;28;20028;-85
2021/07/28 02:26:49;;;;;;;9.23;5.88;;;;;;;16.41;100.00;99976.16;5035426;28;20035;-85
2021/07/28 02:29:14;;;;;;;9.73;6.57;;;;;;;16.34;100.00;99973.84;5035353;28;20079;-84
2021/07/28 02:31:39;;;;;;;12.15;6.78;;;;;;;16.39;100.00;99972.78;5036024;28;20032;-85
2021/07/28 02:34:05;;;;;;;9.13;6.72;;;;;;;16.36;100.00;99972.94;5035373;28;20472;-84
2021/07/28 02:36:30;;;;;;;11.50;6.45;;;;;;;16.34;100.00;99966.00;5035223;28;20025;-84
2021/07/28 02:38:55;;;;;;;9.52;6.72;;;;;;;16.28;100.00;99963.69;5035252;28;20044;-84
2021/07/28 02:41:20;;;;;;;10.65;6.93;;;;;;;16.27;100.00;99962.03;5037668;28;20043;-84
2021/07/28 02:43:46;;;;;;;10.23;6.93;;;;;;;16.32;100.00;99961.78;5039390;28;20028;-84
2021/07/28 02:46:11;;;;;;;11.10;7.25;;;;;;;16.23;100.00;99962.28;5057414;28;20113;-84
2021/07/28 02:48:36;;;;;;;10.27;6.95;;;;;;;16.22;100.00;99971.03;5039222;28;20028;-84
2021/07/28 02:51:01;;;;;;;10.73;7.05;;;;;;;16.22;100.00;99968.41;5039194;28;20025;-85
2021/07/28 02:53:27;;;;;;;10.27;6.88;;;;;;;16.21;100.00;99964.94;5039155;28;20025;-85
2021/07/28 02:55:52;;;;;;;9.50;7.18;;;;;;;16.20;100.00;99967.66;5039085;28;20033;-84
2021/07/28 02:58:17;;;;;;;12.82;7.35;;;;;;;16.19;100.00;99972.03;5039303;28;20086;-84
2021/07/28 03:00:43;;;;;;;12.85;7.80;;;;;;;16.17;100.00;99968.66;5039031;28;20443;-84
2021/07/28 03:03:08;;;;;;;10.52;7.10;;;;;;;16.11;100.00;99959.34;5039370;28;20059;-85
2021/07/28 03:05:33;;;;;;;11.48;7.22;;;;;;;16.11;100.00;99969.81;5039135;28;20020;-84
2021/07/28 03:07:59;;;;;;;11.52;7.00;;;;;;;16.10;100.00;99967.25;5038979;28;20043;-84
2021/07/28 03:10:24;;;;;;;11.38;7.32;;;;;;;16.05;100.00;99970.13;5056966;28;20497;-85
2021/07/28 03:12:49;;;;;;;8.98;6.60;;;;;;;15.99;100.00;99966.97;5038819;28;20075;-85
2021/07/28 03:15:15;;;;;;;17.52;7.50;;;;;;;16.03;100.00;99968.50;5038829;28;20033;-85
2021/07/28 03:17:40;;;;;;;9.43;7.30;;;;;;;15.99;100.00;99969.59;5038938;28;20025;-85
2021/07/28 03:20:06;;;;;;;10.10;6.85;;;;;;;15.87;100.00;99971.88;5038641;28;20063;-84
2021/07/28 03:22:31;;;;;;;8.93;6.53;;;;;;;15.83;100.00;99972.97;5038493;28;20028;-85
2021/07/28 03:24:56;;;;;;;11.38;6.82;;;;;;;15.85;100.00;99972.88;5039226;28;20025;-85
2021/07/28 03:27:21;;;;;;;10.98;6.85;;;;;;;15.75;100.00;99975.09;5038530;28;20051;-84
2021/07/28 03:29:47;;;;;;;10.07;5.78;;;;;;;15.85;100.00;99976.31;5038382;28;20098;-85
2021/07/28 03:32:12;;;;;;;9.73;5.80;;;;;;;15.89;100.00;99969.19;5038472;28;20025;-85
2021/07/28 03:34:38;;;;;;;9.18;6.35;;;;;;;15.86;100.00;99978.03;5038466;28;20029;-85
2021/07/28 03:37:03;;;;;;;10.77;6.40;;;;;;;15.81;100.00;99973.94;5056514;28;20082;-85
2021/07/28 03:39:30;;;;;;;8.40;5.30;;;;;;;15.79;100.00;99976.63;5056044;28;20112;-85
2021/07/28 03:41:55;;;;;;;10.02;5.82;;;;;;;15.81;100.00;99974.78;5055999;28;20035;-85
2021/07/28 03:44:20;;;;;;;9.38;6.07;;;;;;;15.82;100.00;99980.88;5056305;28;20040;-85
2021/07/28 03:46:45;;;;;;;9.48;5.32;;;;;;;15.79;100.00;99973.16;5038288;28;20032;-85
2021/07/28 03:49:11;;;;;;;10.02;5.68;;;;;;;15.85;100.00;99973.72;5038425;28;20091;-85
2021/07/28 03:51:36;;;;;;;10.00;5.72;;;;;;;15.85;100.00;99971.09;5038729;28;20025;-85
2021/07/28 03:54:01;;;;;;;7.88;5.50;;;;;;;15.82;100.00;99973.03;5056193;28;20096;-85
2021/07/28 03:56:26;;;;;;;9.80;5.80;;;;;;;15.84;100.00;99979.03;5038078;28;20091;-85
2021/07/28 03:58:53;;;;;;;9.02;5.72;;;;;;;15.79;100.00;99974.00;5037833;28;20032;-85
2021/07/28 04:01:19;;;;;;;9.30;6.03;;;;;;;15.75;100.00;99969.88;5055820;28;20016;-85
2021/07/28 04:03:45;;;;;;;12.10;6.38;;;;;;;15.79;100.00;99971.41;5038025;28;20056;-85
2021/07/28 04:06:10;;;;;;;11.38;6.63;;;;;;;15.70;100.00;99968.38;5056203;28;20025;-85
2021/07/28 04:08:35;;;;;;;9.73;6.43;;;;;;;15.70;100.00;99974.50;5038098;28;20025;-85
2021/07/28 04:11:00;;;;;;;9.88;6.63;;;;;;;15.63;100.00;99970.44;5037878;28;20397;-85
2021/07/28 04:13:26;;;;;;;10.80;6.90;;;;;;;15.62;100.00;99972.19;5056053;28;20032;-85
2021/07/28 04:15:51;;;;;;;12.02;6.20;;;;;;;15.66;100.00;99973.72;5038652;28;20036;-85
2021/07/28 04:18:16;;;;;;;9.82;6.03;;;;;;;15.60;100.00;99978.41;5037522;28;20516;-85
2021/07/28 04:20:41;;;;;;;10.93;7.35;;;;;;;15.56;100.00;99971.66;5037524;28;20025;-85
2021/07/28 04:23:07;;;;;;;11.95;6.65;;;;;;;15.59;100.00;99967.13;5055345;28;20048;-84
2021/07/28 04:25:32;;;;;;;11.52;7.10;;;;;;;15.59;100.00;99961.06;5055331;28;20025;-85
2021/07/28 04:27:57;;;;;;;12.25;7.25;;;;;;;15.52;100.00;99972.72;5037552;28;20503;-85
2021/07/28 04:30:22;;;;;;;11.60;7.13;;;;;;;15.55;100.00;99965.59;5037447;28;20029;-84
2021/07/28 04:32:48;;;;;;;14.02;7.93;;;;;;;15.53;100.00;99962.19;5037595;28;20039;-84
2021/07/28 04:35:13;;;;;;;13.65;7.38;;;;;;;15.54;100.00;99957.81;5037431;28;20025;-85
2021/07/28 04:37:38;;;;;;;14.02;8.35;;;;;;;15.57;100.00;99957.66;5037499;28;20021;-85
2021/07/28 04:40:04;;;;;;;11.05;7.85;;;;;;;15.68;100.00;99965.03;5055062;28;20060;-85
2021/07/28 04:42:30;;;;;;;12.13;7.95;;;;;;;15.67;100.00;99961.56;5037123;28;20484;-85
2021/07/28 04:44:56;;;;;;;13.73;7.88;;;;;;;15.76;100.00;99968.09;5037209;28;20079;-85
2021/07/28 04:47:21;;;;;;;11.32;7.32;;;;;;;15.75;100.00;99962.03;5037179;28;20025;-85
2021/07/28 04:49:46;;;;;;;13.43;8.23;;;;;;;15.76;100.00;99960.25;5037234;28;20029;-85
2021/07/28 04:52:14;;;;;;;12.60;7.63;;;;;;;15.79;100.00;99955.69;5037097;28;20025;-85
2021/07/28 04:54:40;;;;;;;13.77;8.15;;;;;;;15.84;100.00;99958.09;5036966;28;20024;-85
2021/07/28 04:57:06;;;;;;;13.48;8.18;;;;;;;15.78;100.00;99967.09;5036975;28;20074;-85
2021/07/28 04:59:31;;;;;;;14.15;8.18;;;;;;;15.84;100.00;99958.94;5036902;28;20067;-84
2021/07/28 05:01:59;;;;;;;13.70;7.80;;;;;;;15.84;100.00;99965.94;5036830;28;20025;-84
2021/07/28 05:04:24;;;;;;;17.08;8.93;;;;;;;15.85;100.00;99968.47;5036231;28;20107;-85
2021/07/28 05:06:50;;;;;;;13.52;8.48;;;;;;;16.00;100.00;99964.25;5037226;28;20059;-84
2021/07/28 05:09:16;;;;;;;13.40;8.80;;;;;;;16.18;100.00;99962.50;5037462;28;20021;-84
2021/07/28 05:11:41;;;;;;;14.95;9.63;;;;;;;16.24;100.00;99958.72;5036754;28;20017;-85
2021/07/28 05:14:07;;;;;;;17.35;8.90;;;;;;;16.44;100.00;99960.28;5054769;28;20464;-85
2021/07/28 05:16:32;;;;;;;13.07;8.57;;;;;;;16.75;100.00;99944.72;5036518;28;20032;-84
2021/07/28 05:18:57;;;;;;;12.20;8.35;;;;;;;17.11;100.00;99945.41;5062930;22;20028;-79
2021/07/28 05:21:23;;;;;;;13.55;8.52;;;;;;;17.49;100.00;99951.13;5070282;28;20082;-79
2021/07/28 05:23:48;;;;;;;12.73;8.13;;;;;;;17.30;100.00;99946.06;5065135;28;20451;-79
2021/07/28 05:26:13;;;;;;;12.70;8.00;;;;;;;17.10;100.00;99949.78;5082212;28;20025;-78
2021/07/28 05:28:38;;;;;;;15.05;9.30;;;;;;;17.04;100.00;99952.75;5064608;28;20106;-79
2021/07/28 05:31:04;;;;;;;14.43;8.20;;;;;;;17.02;100.00;99946.75;5066477;28;20052;-79
2021/07/28 05:33:29;;;;;;;14.82;8.07;;;;;;;17.11;100.00;99946.22;5083947;28;20056;-79
2021/07/28 05:35:54;;;;;;;12.95;7.93;;;;;;;16.85;100.00;99945.06;5083943;28;20541;-79
2021/07/28 05:38:20;;;;;;;14.43;8.13;;;;;;;16.88;100.00;99947.50;5083862;28;20082;-79
2021/07/28 05:40:45;;;;;;;18.33;7.80;;;;;;;16.85;100.00;99949.44;5084631;28;20365;-80
2021/07/28 05:43:11;;;;;;;13.32;8.38;;;;;;;17.29;100.00;99954.03;5085033;28;20157;-81
2021/07/28 05:45:36;;;;;;;13.05;7.60;;;;;;;17.83;100.00;99949.25;5085533;28;20024;-81
2021/07/28 05:48:01;;;;;;;11.02;7.65;;;;;;;17.68;100.00;99948.31;5086542;28;20456;-81
2021/07/28 05:50:26;;;;;;;13.40;7.53;;;;;;;17.50;100.00;99942.31;5086278;28;20025;-81
2021/07/28 05:52:52;;;;;;;18.02;8.48;;;;;;;18.58;100.00;99948.22;5086441;28;20025;-81
2021/07/28 05:55:17;;;;;;;14.57;7.65;;;;;;;18.84;100.00;99951.03;5086576;28;20028;-81
2021/07/28 05:57:42;;;;;;;11.00;7.65;;;;;;;18.61;100.00;99950.66;5085511;28;20032;-81
2021/07/28 06:00:08;;;;;;;9.82;7.30;;;;;;;19.35;100.00;99947.84;5086445;28;20028;-81
2021/07/28 06:02:33;;;;;;;11.30;6.72;;;;;;;19.38;100.00;99948.50;5081768;28;20153;-81
2021/07/28 06:04:59;;;;;;;11.40;6.40;;;;;;;19.71;100.00;99955.16;5082905;28;20020;-81
2021/07/28 06:07:24;;;;;;;10.90;6.82;;;;;;;20.21;98.46;99953.56;5082511;28;20054;-81
2021/07/28 06:09:49;;;;;;;10.27;6.05;;;;;;;20.18;97.68;99953.78;5082594;28;20032;-82
2021/07/28 06:12:17;;;;;;;9.88;6.40;;;;;;;19.53;99.58;99952.75;5082240;28;20025;-82
2021/07/28 06:14:43;;;;;;;12.60;6.47;;;;;;;20.40;93.76;99958.41;5064277;28;20114;-82
2021/07/28 06:17:08;;;;;;;10.18;5.70;;;;;;;21.13;91.00;99953.28;5080768;28;20028;-81
2021/07/28 06:19:34;;;;;;;9.77;5.47;;;;;;;21.11;90.60;99949.06;5080618;28;20028;-82
2021/07/28 06:21:59;;;;;;;11.00;5.65;;;;;;;20.45;94.57;99962.41;5064391;28;20024;-82
2021/07/28 06:24:25;;;;;;;9.80;4.93;;;;;;;20.47;92.95;99957.03;5081719;28;20107;-82
2021/07/28 06:26:50;;;;;;;9.52;5.07;;;;;;;20.53;92.80;99961.06;5080865;28;20024;-82
2021/07/28 06:29:15;;;;;;;9.40;6.18;;;;;;;19.60;96.05;99957.63;5063251;28;20024;-82
2021/07/28 06:31:40;;;;;;;12.02;5.80;;;;;;;20.04;96.69;99967.00;5062454;28;20024;-82
2021/07/28 06:34:06;;;;;;;10.52;5.93;;;;;;;21.16;87.99;99954.84;5081388;28;20150;-81
2021/07/28 06:36:31;;;;;;;10.23;6.05;;;;;;;19.62;95.31;99966.25;5080717;28;20029;-81
2021/07/28 06:38:56;;;;;;;9.60;5.80;;;;;;;20.64;90.05;99962.03;5061538;28;20028;-81
2021/07/28 06:41:21;;;;;;;10.18;5.95;;;;;;;20.59;89.97;99966.75;5080064;28;20154;-80
2021/07/28 06:43:47;;;;;;;8.57;4.72;;;;;;;21.25;87.89;99964.75;5060700;28;20483;-80
2021/07/28 06:46:12;;;;;;;15.00;6.40;;;;;;;21.08;89.33;99959.81;5078937;28;20021;-81
2021/07/28 06:48:37;;;;;;;10.23;6.10;;;;;;;21.27;86.52;99959.34;5062794;28;20373;-81
2021/07/28 06:51:03;;;;;;;8.82;5.35;;;;;;;20.73;89.57;99965.81;5080775;28;20312;-81
2021/07/28 06:53:28;;;;;;;9.57;4.90;;;;;;;20.83;88.38;99963.38;5063231;28;20565;-81
2021/07/28 06:55:53;;;;;;;12.77;5.90;;;;;;;20.31;91.73;99974.84;5080298;28;20024;-82
2021/07/28 06:58:19;;;;;;;10.05;5.72;;;;;;;19.98;91.33;99977.03;5081106;28;20021;-82
2021/07/28 07:00:45;;;;;;;9.15;5.25;;;;;;;20.42;90.01;99972.34;5080235;28;20021;-82
2021/07/28 07:03:11;;;;;;;8.07;4.82;;;;;;;20.61;89.97;99971.94;5062411;28;20025;-82
2021/07/28 07:05:36;;;;;;;8.05;4.68;;;;;;;20.52;89.47;99978.69;5080459;28;20488;-82
2021/07/28 07:08:02;;;;;;;10.50;5.27;;;;;;;21.70;83.79;99970.25;5061502;28;20021;-82
2021/07/28 07:10:27;;;;;;;9.27;5.38;;;;;;;22.01;80.99;99962.69;5079474;28;20282;-83
2021/07/28 07:12:52;;;;;;;11.90;5.82;;;;;;;23.40;74.94;99956.28;5061006;28;20029;-83
2021/07/28 07:15:18;;;;;;;8.30;4.93;;;;;;;22.89;75.90;99970.88;5078342;28;20103;-82
2021/07/28 07:17:43;;;;;;;8.25;5.32;;;;;;;22.81;75.48;99969.78;5059783;28;20028;-82
2021/07/28 07:20:09;;;;;;;9.38;5.78;;;;;;;22.64;74.95;99974.63;5078201;28;20382;-82
2021/07/28 07:22:34;;;;;;;8.15;5.10;;;;;;;22.62;77.44;99976.53;5077829;28;20052;-82
2021/07/28 07:24:59;;;;;;;10.63;5.10;;;;;;;23.26;72.25;99969.78;5060454;28;20459;-82
2021/07/28 07:27:25;;;;;;;8.07;5.30;;;;;;;24.39;67.63;99970.16;5062318;28;20035;-81
2021/07/28 07:29:50;;;;;;;10.10;4.68;;;;;;;24.32;68.45;99968.03;5081256;28;20025;-82
2021/07/28 07:32:21;;;;;;;9.75;4.97;;;;;;;23.04;72.01;99970.66;5081889;28;20045;-82
2021/07/28 07:34:46;;;;;;;8.68;5.57;;;;;;;21.68;76.89;99968.72;5063698;28;20024;-81
2021/07/28 07:37:11;;;;;;;9.05;4.97;;;;;;;21.30;82.03;99967.88;5081886;28;20039;-82
2021/07/28 07:39:37;;;;;;;8.48;5.53;;;;;;;21.65;80.43;99975.06;5081549;28;20043;-82
2021/07/28 07:42:02;;;;;;;7.90;4.73;;;;;;;20.95;83.76;99972.22;5081291;28;20021;-82
2021/07/28 07:44:28;;;;;;;12.63;5.28;;;;;;;20.62;86.90;99974.44;5082618;28;20285;-82
2021/07/28 07:46:53;;;;;;;9.13;5.00;;;;;;;19.95;90.00;99974.59;5083659;28;20028;-83
2021/07/28 07:49:18;;;;;;;9.23;5.32;;;;;;;19.76;92.02;99982.84;5082644;28;20027;-81
2021/07/28 07:51:44;;;;;;;8.20;5.00;;;;;;;19.68;93.68;99977.25;5082259;28;20388;-81
2021/07/28 07:54:09;;;;;;;9.52;4.95;;;;;;;19.69;95.47;99978.09;5086885;28;20088;-81
2021/07/28 07:56:34;;;;;;;10.15;5.13;;;;;;;19.98;92.50;99979.66;5066352;28;20020;-82
2021/07/28 07:58:59;;;;;;;9.77;5.32;;;;;;;20.44;90.31;99973.03;5061886;28;20082;-81
2021/07/28 08:01:25;;;;;;;10.35;5.15;;;;;;;20.58;89.33;99977.41;5062236;28;20036;-81
2021/07/28 08:03:50;;;;;;;7.95;4.80;;;;;;;20.69;89.52;99965.19;5063449;28;20073;-81
2021/07/28 08:06:15;;;;;;;10.05;4.93;;;;;;;20.75;87.53;99968.31;5081621;28;20037;-81
2021/07/28 08:08:41;;;;;;;8.55;4.60;;;;;;;21.63;82.72;99962.94;5081825;28;20066;-81
2021/07/28 08:11:10;;;;;;;11.13;5.63;;;;;;;21.76;81.82;99964.53;5063746;28;20056;-82
2021/07/28 08:13:36;;;;;;;9.55;5.43;;;;;;;20.66;85.34;99969.84;5063035;28;20031;-81
2021/07/28 08:16:08;;;;;;;9.27;5.40;;;;;;;20.23;90.21;99968.31;5081802;28;20025;-81
2021/07/28 08:18:33;;;;;;;11.07;5.40;;;;;;;20.03;90.91;99976.72;5063878;28;20028;-81
2021/07/28 08:20:58;;;;;;;8.75;4.85;;;;;;;19.84;94.78;99971.81;5081343;28;20043;-82
2021/07/28 08:23:23;;;;;;;8.18;4.90;;;;;;;19.60;92.76;99973.41;5080496;28;20070;-81
2021/07/28 08:25:49;;;;;;;8.53;4.80;;;;;;;19.73;93.84;99975.16;5080675;28;20103;-82
2021/07/28 08:28:14;;;;;;;9.23;5.30;;;;;;;21.86;84.59;99971.75;5080782;28;20739;-82
2021/07/28 08:30:40;;;;;;;8.55;5.65;;;;;;;21.18;83.81;99970.56;5081116;28;20062;-81
2021/07/28 08:33:05;;;;;;;9.68;4.82;;;;;;;21.48;83.22;99970.16;5079799;28;20059;-81
2021/07/28 08:35:30;;;;;;;12.10;5.55;;;;;;;21.17;84.91;99974.16;5061876;28;20024;-81
2021/07/28 08:37:56;;;;;;;7.10;4.70;;;;;;;20.96;86.62;99972.09;5061476;28;20377;-81
2021/07/28 08:40:21;;;;;;;10.95;5.38;;;;;;;20.50;84.78;99970.00;5079682;28;20267;-81
2021/07/28 08:42:49;;;;;;;6.72;4.45;;;;;;;20.47;85.67;99975.47;5062910;28;20031;-81
2021/07/28 08:45:16;;;;;;;8.25;4.80;;;;;;;20.75;83.84;99974.47;5062489;28;20028;-82
2021/07/28 08:47:43;;;;;;;8.63;4.72;;;;;;;20.94;85.02;99978.44;5079837;28;20524;-81
2021/07/28 08:50:10;;;;;;;9.57;5.15;;;;;;;22.18;80.04;99978.16;5079914;28;20036;-81
2021/07/28 08:52:38;;;;;;;7.90;4.40;;;;;;;22.77;76.98;99969.19;5080429;28;20024;-81
2021/07/28 08:55:05;;;;;;;9.45;5.35;;;;;;;22.62;73.11;99965.94;5079459;28;20461;-81
2021/07/28 08:57:32;;;;;;;9.05;4.70;;;;;;;23.67;69.23;99969.03;5079779;28;20047;-82
2021/07/28 08:59:58;;;;;;;6.03;4.00;;;;;;;22.94;69.56;99966.09;5061613;28;20030;-82
2021/07/28 09:02:25;;;;;;;7.03;3.80;;;;;;;23.93;66.44;99958.97;5079678;28;20096;-81
2021/07/28 09:04:51;;;;;;;8.38;4.07;;;;;;;23.23;66.54;99955.00;5080056;28;20051;-82
2021/07/28 09:07:16;;;;;;;8.13;3.88;;;;;;;23.44;68.88;99957.72;5061583;28;20020;-82
2021/07/28 09:09:51;;;;;;;7.93;4.13;;;;;;;22.68;69.89;99960.19;5079660;28;20472;-82
2021/07/28 09:12:17;;;;;;;8.00;3.40;;;;;;;22.56;73.78;99968.22;5079069;28;20074;-82
2021/07/28 09:14:57;;;;;;;6.97;4.03;;;;;;;23.14;71.36;99967.16;5079236;28;20020;-82
2021/07/28 09:17:27;;;;;;;6.22;3.85;;;;;;;22.89;71.89;99973.53;5079395;28;20024;-82
2021/07/28 09:19:54;;;;;;;6.78;3.55;;;;;;;24.06;65.36;99975.53;5079004;28;20112;-82
2021/07/28 09:22:20;;;;;;;8.93;3.90;;;;;;;22.58;69.35;99976.91;5060951;28;20020;-82
2021/07/28 09:25:08;;;;;;;6.88;4.05;;;;;;;22.47;70.79;99970.63;5079875;28;20024;-82
2021/07/28 09:27:42;;;;;;;7.10;4.05;;;;;;;22.71;69.65;99978.44;5079190;28;20024;-82
2021/07/28 09:30:09;;;;;;;6.32;3.50;;;;;;;23.40;67.15;99961.56;5079628;28;20157;-82
2021/07/28 09:32:35;;;;;;;5.93;3.60;;;;;;;24.68;61.66;99965.03;5078306;28;20025;-82
2021/07/28 09:35:01;;;;;;;5.82;3.47;;;;;;;25.47;61.66;99955.34;5079106;28;20393;-82
2021/07/28 09:37:27;;;;;;;6.40;3.60;;;;;;;24.45;61.21;99956.41;5078837;28;20024;-82
2021/07/28 09:39:53;;;;;;;6.97;3.47;;;;;;;25.21;61.17;99951.53;5078968;28;20024;-82
2021/07/28 09:42:20;;;;;;;6.50;3.58;;;;;;;25.44;58.39;99947.66;5078143;28;20376;-82
2021/07/28 09:44:52;;;;;;;8.40;3.83;;;;;;;24.23;63.35;99952.03;5060363;28;20036;-82
2021/07/28 09:47:26;;;;;;;6.43;3.50;;;;;;;25.67;57.02;99939.41;5078552;28;20029;-82
2021/07/28 09:49:57;;;;;;;6.68;3.13;;;;;;;26.60;55.54;99946.69;5059933;28;20033;-82
2021/07/28 09:52:33;;;;;;;6.20;3.60;;;;;;;26.17;53.11;99939.25;5059938;28;20077;-82
2021/07/28 09:54:59;;;;;;;7.63;3.58;;;;;;;23.60;61.04;99949.34;5059779;28;20054;-82
2021/07/28 09:57:26;;;;;;;7.65;3.20;;;;;;;24.53;60.14;99941.50;5059881;28;20027;-82
2021/07/28 10:00:04;;;;;;;10.55;3.63;;;;;;;24.84;56.19;99930.03;5060202;28;20098;-82
2021/07/28 10:02:31;;;;;;;6.03;3.53;;;;;;;23.75;61.28;99941.97;5060428;28;20117;-82
2021/07/28 10:04:59;;;;;;;7.70;3.50;;;;;;;22.87;65.63;99943.69;5060378;28;20111;-82
2021/07/28 10:07:26;;;;;;;7.20;3.80;;;;;;;22.88;64.38;99940.13;5059413;28;20056;-81
2021/07/28 10:10:02;;;;;;;7.35;3.22;;;;;;;22.64;67.29;99945.53;5076069;28;20024;-80
2021/07/28 10:12:28;;;;;;;7.18;3.10;;;;;;;22.74;66.64;99946.47;5058155;28;20031;-80
2021/07/28 10:14:56;;;;;;;6.30;2.95;;;;;;;24.06;61.13;99938.44;5075703;28;20078;-81
2021/07/28 10:17:22;;;;;;;6.63;3.00;;;;;;;25.17;57.34;99928.88;5057646;28;20397;-81
2021/07/28 10:19:48;;;;;;;6.97;3.00;;;;;;;24.95;56.76;99937.91;5057730;28;20025;-81
2021/07/28 10:22:13;;;;;;;6.63;3.22;;;;;;;24.82;59.33;99932.84;5057464;28;20024;-81
2021/07/28 10:24:39;;;;;;;9.27;3.20;;;;;;;24.17;57.91;99940.19;5057550;28;20031;-81
2021/07/28 10:27:05;;;;;;;5.70;2.88;;;;;;;22.99;63.20;99939.28;5062604;28;20472;-80
2021/07/28 10:29:31;;;;;;;8.32;3.30;;;;;;;22.71;65.27;99937.97;5058531;28;20016;-80
2021/07/28 10:31:56;;;;;;;5.75;2.72;;;;;;;22.93;64.58;99942.38;5057166;28;20557;-80
2021/07/28 10:34:23;;;;;;;8.23;3.53;;;;;;;22.84;64.13;99929.88;5075503;28;20035;-80
2021/07/28 10:36:48;;;;;;;6.55;2.97;;;;;;;23.15;61.80;99930.94;5057774;28;20036;-80
2021/07/28 10:39:33;;;;;;;5.45;2.67;;;;;;;23.09;63.82;99929.66;5074906;28;20396;-80
2021/07/28 10:41:58;;;;;;;9.95;3.63;;;;;;;22.85;63.07;99931.59;5075875;28;20039;-80
2021/07/28 10:44:24;;;;;;;7.53;3.10;;;;;;;22.82;65.31;99929.19;5058216;28;20029;-80
2021/07/28 10:46:52;;;;;;;7.68;2.88;;;;;;;23.03;64.47;99931.94;5058715;28;20445;-80
2021/07/28 10:49:33;;;;;;;5.53;3.00;;;;;;;24.09;60.91;99929.38;5076523;28;20029;-80
2021/07/28 10:51:58;;;;;;;6.97;3.00;;;;;;;24.07;60.93;99940.09;5059085;28;20024;-80
2021/07/28 10:54:46;;;;;;;6.13;3.05;;;;;;;23.92;63.60;99941.38;5077035;28;20542;-80
2021/07/28 10:57:33;;;;;;;7.32;2.83;;;;;;;25.91;56.01;99923.88;5057554;28;20020;-80
2021/07/28 11:00:07;;;;;;;6.63;3.03;;;;;;;26.84;53.42;99919.53;5075483;28;20438;-80
2021/07/28 11:02:51;;;;;;;6.18;3.15;;;;;;;25.88;56.64;99916.19;5059910;28;20028;-80
2021/07/28 11:05:23;;;;;;;5.68;3.20;;;;;;;24.60;57.83;99912.66;5061431;28;20032;-80
2021/07/28 11:08:07;;;;;;;6.82;3.40;;;;;;;25.82;56.88;99898.16;5079141;28;20032;-79
2021/07/28 11:10:34;;;;;;;6.47;2.83;;;;;;;26.75;54.43;99895.66;5061447;28;20027;-80
2021/07/28 11:13:04;;;;;;;6.03;3.20;;;;;;;26.44;54.91;99897.72;5079357;28;20052;-81
2021/07/28 11:15:29;;;;;;;9.35;3.20;;;;;;;26.05;53.60;99885.41;5079047;28;20602;-80
2021/07/28 11:17:56;;;;;;;6.63;3.30;;;;;;;26.17;55.07;99896.72;5080723;28;20032;-81
2021/07/28 11:20:37;;;;;;;5.53;2.80;;;;;;;26.07;54.69;99899.38;5101567;22;20035;-85
2021/07/28 11:23:21;;;;;;;5.80;3.03;;;;;;;25.64;54.10;99884.72;5057127;28;20098;-85